N837SC KMSP-CYYZ
Flight info
| Callsign | N837SC |
|---|---|
| Flight time | 1h 22m |
| Altitude | 45000 |
| Route | WLSTN7 GRB DCT YZEMN NUBER6 |
| Aircraft | C750/M-SBDE3FGHRWXY/S |
Departure
| Time | 2026-05-06 14:13 |
|---|---|
| Airport | Minneapolis–Saint Paul International Airport / Wold–Chamberlain Field (KMSP) |
Arrival
| Time | 2026-05-06 15:35 |
|---|---|
| Airport | Toronto Pearson International Airport (CYYZ) |
| Time | Latitude | Longitude | Altitude | Speed | Heading |
|---|---|---|---|---|---|
| 2026-05-06 13:39 | 44.87754 | -93.21720 | 832 ft | 0 kts | 270° |
| 2026-05-06 14:08 | 44.87756 | -93.21722 | 832 ft | 0 kts | 304° |
| 2026-05-06 14:08 | 44.87760 | -93.21719 | 827 ft | 0 kts | 18° |
| 2026-05-06 14:08 | 44.87760 | -93.21716 | 828 ft | 0 kts | 51° |
| 2026-05-06 14:08 | 44.87767 | -93.21656 | 832 ft | 17 kts | 79° |
| 2026-05-06 14:09 | 44.87808 | -93.21529 | 829 ft | 11 kts | 55° |
| 2026-05-06 14:09 | 44.87799 | -93.21436 | 827 ft | 10 kts | 124° |
| 2026-05-06 14:09 | 44.87763 | -93.21356 | 831 ft | 9 kts | 120° |
| 2026-05-06 14:09 | 44.87731 | -93.21278 | 831 ft | 9 kts | 120° |
| 2026-05-06 14:10 | 44.87700 | -93.21210 | 827 ft | 8 kts | 124° |
| 2026-05-06 14:10 | 44.87672 | -93.21150 | 831 ft | 7 kts | 123° |
| 2026-05-06 14:10 | 44.87645 | -93.21091 | 830 ft | 7 kts | 120° |
| 2026-05-06 14:10 | 44.87611 | -93.21007 | 831 ft | 12 kts | 120° |
| 2026-05-06 14:11 | 44.87562 | -93.20896 | 829 ft | 14 kts | 120° |
| 2026-05-06 14:11 | 44.87509 | -93.20770 | 830 ft | 16 kts | 129° |
| 2026-05-06 14:11 | 44.87426 | -93.20667 | 831 ft | 16 kts | 148° |
| 2026-05-06 14:11 | 44.87353 | -93.20563 | 828 ft | 15 kts | 119° |
| 2026-05-06 14:12 | 44.87301 | -93.20434 | 831 ft | 16 kts | 120° |
| 2026-05-06 14:12 | 44.87245 | -93.20297 | 830 ft | 17 kts | 119° |
| 2026-05-06 14:12 | 44.87285 | -93.20198 | 829 ft | 14 kts | 39° |
| 2026-05-06 14:12 | 44.87367 | -93.20189 | 827 ft | 10 kts | 338° |
| 2026-05-06 14:13 | 44.87392 | -93.20221 | 826 ft | 3 kts | 298° |
| 2026-05-06 14:13 | 44.87547 | -93.20599 | 826 ft | 81 kts | 304° |
| 2026-05-06 14:13 | 44.87961 | -93.21523 | 1020 ft | 125 kts | 303° |
| 2026-05-06 14:13 | 44.88462 | -93.22505 | 1824 ft | 123 kts | 316° |
| 2026-05-06 14:14 | 44.89384 | -93.22698 | 2137 ft | 165 kts | 21° |
| 2026-05-06 14:14 | 44.90047 | -93.21259 | 2744 ft | 194 kts | 77° |
| 2026-05-06 14:14 | 44.90222 | -93.19396 | 3665 ft | 194 kts | 74° |
| 2026-05-06 14:14 | 44.90668 | -93.17612 | 4541 ft | 189 kts | 57° |
| 2026-05-06 14:15 | 44.91455 | -93.16125 | 5372 ft | 191 kts | 41° |
| 2026-05-06 14:15 | 44.92399 | -93.14765 | 6282 ft | 197 kts | 39° |
| 2026-05-06 14:15 | 44.93361 | -93.13345 | 7188 ft | 203 kts | 40° |
| 2026-05-06 14:15 | 44.94342 | -93.11865 | 8123 ft | 210 kts | 41° |
| 2026-05-06 14:16 | 44.95356 | -93.10338 | 9136 ft | 215 kts | 41° |
| 2026-05-06 14:16 | 44.96377 | -93.08797 | 10154 ft | 213 kts | 41° |
| 2026-05-06 14:16 | 44.97385 | -93.07279 | 11042 ft | 209 kts | 41° |
| 2026-05-06 14:16 | 44.98371 | -93.05791 | 11887 ft | 201 kts | 41° |
| 2026-05-06 14:17 | 44.99256 | -93.04445 | 12506 ft | 183 kts | 40° |
| 2026-05-06 14:17 | 45.00133 | -93.03137 | 13048 ft | 186 kts | 40° |
| 2026-05-06 14:17 | 45.01035 | -93.01783 | 13682 ft | 193 kts | 40° |
| 2026-05-06 14:17 | 45.01975 | -93.00365 | 14342 ft | 200 kts | 40° |
| 2026-05-06 14:18 | 45.02938 | -92.98909 | 15040 ft | 205 kts | 40° |
| 2026-05-06 14:18 | 45.03920 | -92.97423 | 15769 ft | 208 kts | 40° |
| 2026-05-06 14:18 | 45.04917 | -92.95915 | 16516 ft | 211 kts | 40° |
| 2026-05-06 14:18 | 45.05930 | -92.94382 | 17258 ft | 217 kts | 40° |
| 2026-05-06 14:19 | 45.07025 | -92.92736 | 17579 ft | 242 kts | 41° |
| 2026-05-06 14:19 | 45.08228 | -92.90921 | 17828 ft | 269 kts | 42° |
| 2026-05-06 14:19 | 45.09567 | -92.88888 | 18080 ft | 296 kts | 43° |
| 2026-05-06 14:19 | 45.11030 | -92.86663 | 18303 ft | 321 kts | 43° |
| 2026-05-06 14:20 | 45.12612 | -92.84260 | 18434 ft | 348 kts | 43° |
| 2026-05-06 14:20 | 45.14321 | -92.81664 | 18481 ft | 373 kts | 43° |
| 2026-05-06 14:20 | 45.16149 | -92.78881 | 18546 ft | 397 kts | 44° |
| 2026-05-06 14:20 | 45.18056 | -92.75970 | 19026 ft | 403 kts | 44° |
| 2026-05-06 14:21 | 45.19974 | -92.73039 | 19640 ft | 407 kts | 44° |
| 2026-05-06 14:21 | 45.21920 | -92.70076 | 20208 ft | 413 kts | 44° |
| 2026-05-06 14:21 | 45.23814 | -92.66982 | 20689 ft | 422 kts | 51° |
| 2026-05-06 14:21 | 45.25224 | -92.63276 | 21276 ft | 430 kts | 65° |
| 2026-05-06 14:22 | 45.26048 | -92.59165 | 21836 ft | 436 kts | 77° |
| 2026-05-06 14:22 | 45.26634 | -92.54980 | 22398 ft | 440 kts | 78° |
| 2026-05-06 14:22 | 45.27236 | -92.50688 | 22941 ft | 445 kts | 78° |
| 2026-05-06 14:22 | 45.27857 | -92.46360 | 23507 ft | 450 kts | 78° |
| 2026-05-06 14:23 | 45.28483 | -92.41979 | 23991 ft | 455 kts | 78° |
| 2026-05-06 14:23 | 45.29104 | -92.37546 | 24468 ft | 459 kts | 78° |
| 2026-05-06 14:23 | 45.29729 | -92.33078 | 24941 ft | 463 kts | 78° |
| 2026-05-06 14:23 | 45.30365 | -92.28558 | 25377 ft | 469 kts | 78° |
| 2026-05-06 14:24 | 45.31006 | -92.23995 | 25845 ft | 473 kts | 78° |
| 2026-05-06 14:24 | 45.31649 | -92.19373 | 26310 ft | 478 kts | 79° |
| 2026-05-06 14:24 | 45.32288 | -92.14762 | 26773 ft | 483 kts | 79° |
| 2026-05-06 14:24 | 45.32941 | -92.10056 | 27242 ft | 487 kts | 79° |
| 2026-05-06 14:25 | 45.33597 | -92.05311 | 27716 ft | 492 kts | 79° |
| 2026-05-06 14:25 | 45.34257 | -92.00513 | 28190 ft | 497 kts | 79° |
| 2026-05-06 14:25 | 45.34920 | -91.95678 | 28661 ft | 501 kts | 79° |
| 2026-05-06 14:25 | 45.35591 | -91.90777 | 29085 ft | 507 kts | 79° |
| 2026-05-06 14:26 | 45.36267 | -91.85818 | 29541 ft | 512 kts | 79° |
| 2026-05-06 14:26 | 45.36945 | -91.80823 | 29995 ft | 517 kts | 79° |
| 2026-05-06 14:26 | 45.37625 | -91.75798 | 30506 ft | 518 kts | 79° |
| 2026-05-06 14:26 | 45.38307 | -91.70749 | 30908 ft | 521 kts | 79° |
| 2026-05-06 14:27 | 45.38989 | -91.65670 | 31388 ft | 522 kts | 79° |
| 2026-05-06 14:27 | 45.39658 | -91.60667 | 31954 ft | 521 kts | 79° |
| 2026-05-06 14:27 | 45.40338 | -91.55578 | 32470 ft | 522 kts | 79° |
| 2026-05-06 14:27 | 45.41016 | -91.50484 | 32907 ft | 524 kts | 79° |
| 2026-05-06 14:28 | 45.41693 | -91.45374 | 33401 ft | 526 kts | 79° |
| 2026-05-06 14:28 | 45.42367 | -91.40262 | 33954 ft | 526 kts | 79° |
| 2026-05-06 14:28 | 45.43041 | -91.35143 | 34421 ft | 526 kts | 79° |
| 2026-05-06 14:28 | 45.43713 | -91.30017 | 34922 ft | 525 kts | 79° |
| 2026-05-06 14:29 | 45.44371 | -91.24981 | 35422 ft | 524 kts | 79° |
| 2026-05-06 14:29 | 45.45036 | -91.19869 | 35934 ft | 523 kts | 79° |
| 2026-05-06 14:29 | 45.45694 | -91.14794 | 36442 ft | 522 kts | 79° |
| 2026-05-06 14:29 | 45.46338 | -91.09710 | 36928 ft | 522 kts | 81° |
| 2026-05-06 14:30 | 45.46636 | -91.04535 | 37415 ft | 522 kts | 90° |
| 2026-05-06 14:30 | 45.46390 | -90.99388 | 37962 ft | 519 kts | 99° |
| 2026-05-06 14:30 | 45.45618 | -90.94393 | 38510 ft | 515 kts | 109° |
| 2026-05-06 14:30 | 45.44363 | -90.89698 | 38958 ft | 511 kts | 117° |
| 2026-05-06 14:31 | 45.42755 | -90.85208 | 39384 ft | 508 kts | 122° |
| 2026-05-06 14:31 | 45.41033 | -90.80811 | 39808 ft | 507 kts | 122° |
| 2026-05-06 14:31 | 45.39410 | -90.76359 | 40188 ft | 510 kts | 118° |
| 2026-05-06 14:31 | 45.38019 | -90.71710 | 40590 ft | 511 kts | 115° |
| 2026-05-06 14:32 | 45.36728 | -90.66980 | 40985 ft | 512 kts | 115° |
| 2026-05-06 14:32 | 45.35311 | -90.62324 | 41383 ft | 510 kts | 118° |
| 2026-05-06 14:32 | 45.33773 | -90.57788 | 41805 ft | 509 kts | 119° |
| 2026-05-06 14:32 | 45.32305 | -90.53264 | 42208 ft | 510 kts | 117° |
| 2026-05-06 14:33 | 45.30914 | -90.48623 | 42637 ft | 510 kts | 116° |
| 2026-05-06 14:33 | 45.29500 | -90.43995 | 43052 ft | 509 kts | 117° |
| 2026-05-06 14:33 | 45.28020 | -90.39427 | 43454 ft | 509 kts | 118° |
| 2026-05-06 14:33 | 45.26534 | -90.34845 | 43829 ft | 509 kts | 118° |
| 2026-05-06 14:34 | 45.25099 | -90.30256 | 44205 ft | 510 kts | 117° |
| 2026-05-06 14:34 | 45.23663 | -90.25640 | 44601 ft | 509 kts | 117° |
| 2026-05-06 14:34 | 45.22204 | -90.21078 | 44941 ft | 508 kts | 118° |
| 2026-05-06 14:34 | 45.20737 | -90.16537 | 44922 ft | 517 kts | 118° |
| 2026-05-06 14:35 | 45.17736 | -90.07094 | 44933 ft | 531 kts | 118° |
| 2026-05-06 14:35 | 45.14634 | -89.97440 | 44922 ft | 544 kts | 118° |
| 2026-05-06 14:36 | 45.11463 | -89.87573 | 44942 ft | 554 kts | 118° |
| 2026-05-06 14:36 | 45.08248 | -89.77618 | 44935 ft | 558 kts | 118° |
| 2026-05-06 14:37 | 45.05030 | -89.67694 | 44925 ft | 557 kts | 118° |
| 2026-05-06 14:37 | 45.01791 | -89.57740 | 44923 ft | 556 kts | 118° |
| 2026-05-06 14:38 | 44.98538 | -89.47784 | 44915 ft | 556 kts | 118° |
| 2026-05-06 14:38 | 44.95307 | -89.37926 | 44920 ft | 557 kts | 118° |
| 2026-05-06 14:39 | 44.92033 | -89.27983 | 44923 ft | 557 kts | 118° |
| 2026-05-06 14:39 | 44.88775 | -89.18120 | 44918 ft | 557 kts | 118° |
| 2026-05-06 14:40 | 44.85491 | -89.08219 | 44924 ft | 557 kts | 118° |
| 2026-05-06 14:40 | 44.82759 | -89.00007 | 44927 ft | 557 kts | 118° |
| 2026-05-06 14:41 | 44.79455 | -88.90111 | 44928 ft | 557 kts | 119° |
| 2026-05-06 14:41 | 44.76147 | -88.80241 | 44931 ft | 557 kts | 119° |
| 2026-05-06 14:42 | 44.72849 | -88.70436 | 44927 ft | 556 kts | 119° |
| 2026-05-06 14:42 | 44.69527 | -88.60596 | 44921 ft | 556 kts | 119° |
| 2026-05-06 14:43 | 44.66205 | -88.50792 | 44930 ft | 556 kts | 119° |
| 2026-05-06 14:43 | 44.62865 | -88.40971 | 44920 ft | 557 kts | 119° |
| 2026-05-06 14:44 | 44.59520 | -88.31174 | 44904 ft | 556 kts | 120° |
| 2026-05-06 14:45 | 44.54507 | -88.16542 | 44921 ft | 557 kts | 120° |
| 2026-05-06 14:45 | 44.51650 | -88.06405 | 44901 ft | 563 kts | 109° |
| 2026-05-06 14:46 | 44.49644 | -87.95766 | 44924 ft | 564 kts | 108° |
| 2026-05-06 14:46 | 44.47035 | -87.85425 | 44908 ft | 560 kts | 116° |
| 2026-05-06 14:47 | 44.44280 | -87.75302 | 44912 ft | 562 kts | 111° |
| 2026-05-06 14:47 | 44.41803 | -87.64957 | 44913 ft | 559 kts | 114° |
| 2026-05-06 14:48 | 44.39056 | -87.54755 | 44901 ft | 561 kts | 113° |
| 2026-05-06 14:48 | 44.36495 | -87.44419 | 44923 ft | 563 kts | 114° |
| 2026-05-06 14:49 | 44.33774 | -87.34176 | 44942 ft | 562 kts | 114° |
| 2026-05-06 14:49 | 44.31155 | -87.23905 | 44946 ft | 565 kts | 114° |
| 2026-05-06 14:50 | 44.28441 | -87.13624 | 44948 ft | 564 kts | 114° |
| 2026-05-06 14:50 | 44.25757 | -87.03306 | 44958 ft | 565 kts | 114° |
| 2026-05-06 14:51 | 44.23034 | -86.93002 | 44933 ft | 566 kts | 114° |
| 2026-05-06 14:51 | 44.20330 | -86.82746 | 44934 ft | 568 kts | 114° |
| 2026-05-06 14:52 | 44.17580 | -86.72401 | 44903 ft | 567 kts | 114° |
| 2026-05-06 14:52 | 44.14823 | -86.62051 | 44917 ft | 570 kts | 114° |
| 2026-05-06 14:53 | 44.12075 | -86.51791 | 44916 ft | 568 kts | 114° |
| 2026-05-06 14:53 | 44.09301 | -86.41476 | 44916 ft | 569 kts | 114° |
| 2026-05-06 14:54 | 44.06511 | -86.31143 | 44919 ft | 569 kts | 115° |
| 2026-05-06 14:54 | 44.03720 | -86.20852 | 44910 ft | 569 kts | 115° |
| 2026-05-06 14:55 | 44.00934 | -86.10621 | 44904 ft | 569 kts | 115° |
| 2026-05-06 14:55 | 43.98123 | -86.00346 | 44901 ft | 569 kts | 115° |
| 2026-05-06 14:56 | 43.95295 | -85.90048 | 44875 ft | 569 kts | 115° |
| 2026-05-06 14:56 | 43.92474 | -85.79818 | 44894 ft | 572 kts | 115° |
| 2026-05-06 14:57 | 43.89627 | -85.69542 | 44891 ft | 571 kts | 115° |
| 2026-05-06 14:57 | 43.86770 | -85.59270 | 44897 ft | 570 kts | 115° |
| 2026-05-06 14:58 | 43.83904 | -85.49007 | 44894 ft | 570 kts | 115° |
| 2026-05-06 14:58 | 43.81028 | -85.38755 | 44897 ft | 570 kts | 115° |
| 2026-05-06 14:59 | 43.78152 | -85.28540 | 44899 ft | 570 kts | 115° |
| 2026-05-06 14:59 | 43.76721 | -85.23462 | 44895 ft | 558 kts | 115° |
| 2026-05-06 14:59 | 43.75335 | -85.18547 | 44887 ft | 547 kts | 115° |
| 2026-05-06 15:00 | 43.72520 | -85.08690 | 44875 ft | 558 kts | 116° |
| 2026-05-06 15:00 | 43.69656 | -84.98598 | 44914 ft | 566 kts | 115° |
| 2026-05-06 15:01 | 43.66737 | -84.88426 | 44919 ft | 569 kts | 116° |
| 2026-05-06 15:01 | 43.63833 | -84.78307 | 44914 ft | 569 kts | 116° |
| 2026-05-06 15:02 | 43.60903 | -84.68162 | 44910 ft | 568 kts | 116° |
| 2026-05-06 15:02 | 43.57976 | -84.58052 | 44900 ft | 567 kts | 116° |
| 2026-05-06 15:03 | 43.55046 | -84.47961 | 44904 ft | 567 kts | 116° |
| 2026-05-06 15:03 | 43.52119 | -84.37902 | 44903 ft | 567 kts | 116° |
| 2026-05-06 15:04 | 43.49166 | -84.27808 | 44898 ft | 567 kts | 116° |
| 2026-05-06 15:04 | 43.46219 | -84.17761 | 44929 ft | 567 kts | 116° |
| 2026-05-06 15:05 | 43.43254 | -84.07705 | 44938 ft | 567 kts | 116° |
| 2026-05-06 15:05 | 43.40276 | -83.97634 | 44917 ft | 567 kts | 116° |
| 2026-05-06 15:06 | 43.37313 | -83.87663 | 44917 ft | 566 kts | 116° |
| 2026-05-06 15:06 | 43.34368 | -83.77630 | 44910 ft | 568 kts | 113° |
| 2026-05-06 15:07 | 43.32755 | -83.66970 | 44903 ft | 576 kts | 96° |
| 2026-05-06 15:07 | 43.33213 | -83.55952 | 44897 ft | 579 kts | 81° |
| 2026-05-06 15:08 | 43.34925 | -83.45163 | 44916 ft | 580 kts | 77° |
| 2026-05-06 15:08 | 43.36263 | -83.34218 | 44890 ft | 580 kts | 84° |
| 2026-05-06 15:09 | 43.37199 | -83.23301 | 44885 ft | 580 kts | 81° |
| 2026-05-06 15:09 | 43.38556 | -83.12380 | 44867 ft | 580 kts | 82° |
| 2026-05-06 15:10 | 43.39581 | -83.01349 | 44867 ft | 580 kts | 82° |
| 2026-05-06 15:10 | 43.40829 | -82.90386 | 44868 ft | 580 kts | 82° |
| 2026-05-06 15:10 | 43.41387 | -82.84901 | 44117 ft | 576 kts | 83° |
| 2026-05-06 15:11 | 43.41890 | -82.79543 | 43414 ft | 567 kts | 83° |
| 2026-05-06 15:11 | 43.42434 | -82.74205 | 42680 ft | 557 kts | 82° |
| 2026-05-06 15:11 | 43.42999 | -82.68986 | 41963 ft | 548 kts | 82° |
| 2026-05-06 15:11 | 43.43531 | -82.63828 | 41254 ft | 540 kts | 83° |
| 2026-05-06 15:12 | 43.44025 | -82.58733 | 40553 ft | 534 kts | 83° |
| 2026-05-06 15:12 | 43.44524 | -82.53673 | 39866 ft | 531 kts | 83° |
| 2026-05-06 15:12 | 43.45040 | -82.48634 | 39174 ft | 533 kts | 83° |
| 2026-05-06 15:12 | 43.45556 | -82.43551 | 38422 ft | 538 kts | 83° |
| 2026-05-06 15:13 | 43.46056 | -82.38438 | 37675 ft | 540 kts | 83° |
| 2026-05-06 15:13 | 43.46547 | -82.33391 | 37002 ft | 543 kts | 83° |
| 2026-05-06 15:13 | 43.46987 | -82.28205 | 36268 ft | 543 kts | 88° |
| 2026-05-06 15:13 | 43.47073 | -82.23026 | 35570 ft | 540 kts | 92° |
| 2026-05-06 15:14 | 43.47010 | -82.17850 | 34857 ft | 538 kts | 94° |
| 2026-05-06 15:14 | 43.46953 | -82.12693 | 34147 ft | 537 kts | 93° |
| 2026-05-06 15:14 | 43.46995 | -82.07563 | 33376 ft | 534 kts | 91° |
| 2026-05-06 15:14 | 43.47051 | -82.02477 | 32676 ft | 530 kts | 92° |
| 2026-05-06 15:15 | 43.47029 | -81.97385 | 31981 ft | 532 kts | 93° |
| 2026-05-06 15:15 | 43.46980 | -81.92280 | 31248 ft | 534 kts | 93° |
| 2026-05-06 15:15 | 43.46978 | -81.87160 | 30553 ft | 536 kts | 92° |
| 2026-05-06 15:15 | 43.47002 | -81.82039 | 29816 ft | 533 kts | 92° |
| 2026-05-06 15:16 | 43.46993 | -81.76970 | 29087 ft | 525 kts | 92° |
| 2026-05-06 15:16 | 43.46958 | -81.72023 | 28406 ft | 519 kts | 93° |
| 2026-05-06 15:16 | 43.46935 | -81.67065 | 27724 ft | 516 kts | 92° |
| 2026-05-06 15:16 | 43.46932 | -81.62147 | 27037 ft | 510 kts | 92° |
| 2026-05-06 15:17 | 43.46919 | -81.57271 | 26366 ft | 506 kts | 92° |
| 2026-05-06 15:17 | 43.46889 | -81.52442 | 25702 ft | 502 kts | 93° |
| 2026-05-06 15:17 | 43.46860 | -81.47650 | 25036 ft | 498 kts | 92° |
| 2026-05-06 15:17 | 43.46839 | -81.42898 | 24384 ft | 494 kts | 92° |
| 2026-05-06 15:18 | 43.46816 | -81.38192 | 23737 ft | 490 kts | 92° |
| 2026-05-06 15:18 | 43.46785 | -81.33523 | 23037 ft | 485 kts | 92° |
| 2026-05-06 15:18 | 43.46753 | -81.28910 | 22398 ft | 478 kts | 92° |
| 2026-05-06 15:18 | 43.46722 | -81.24403 | 21779 ft | 476 kts | 92° |
| 2026-05-06 15:19 | 43.46690 | -81.19864 | 21148 ft | 471 kts | 92° |
| 2026-05-06 15:19 | 43.46656 | -81.15371 | 20531 ft | 465 kts | 92° |
| 2026-05-06 15:19 | 43.46619 | -81.10940 | 19921 ft | 459 kts | 92° |
| 2026-05-06 15:19 | 43.46582 | -81.06560 | 19318 ft | 454 kts | 93° |
| 2026-05-06 15:20 | 43.46544 | -81.02238 | 18721 ft | 449 kts | 93° |
| 2026-05-06 15:20 | 43.46505 | -80.97966 | 18122 ft | 444 kts | 93° |
| 2026-05-06 15:20 | 43.46465 | -80.93803 | 17685 ft | 436 kts | 93° |
| 2026-05-06 15:20 | 43.46421 | -80.89569 | 17104 ft | 435 kts | 93° |
| 2026-05-06 15:21 | 43.46379 | -80.85467 | 16546 ft | 431 kts | 93° |
| 2026-05-06 15:21 | 43.46337 | -80.81361 | 15988 ft | 426 kts | 93° |
| 2026-05-06 15:21 | 43.46292 | -80.77313 | 15424 ft | 420 kts | 94° |
| 2026-05-06 15:21 | 43.46245 | -80.73303 | 14865 ft | 415 kts | 94° |
| 2026-05-06 15:22 | 43.46198 | -80.69363 | 14321 ft | 410 kts | 94° |
| 2026-05-06 15:22 | 43.46151 | -80.65449 | 13783 ft | 406 kts | 94° |
| 2026-05-06 15:22 | 43.46103 | -80.61591 | 13206 ft | 400 kts | 94° |
| 2026-05-06 15:22 | 43.46055 | -80.57789 | 12670 ft | 394 kts | 94° |
| 2026-05-06 15:23 | 43.46005 | -80.54079 | 12160 ft | 391 kts | 94° |
| 2026-05-06 15:23 | 43.45953 | -80.50310 | 11639 ft | 388 kts | 93° |
| 2026-05-06 15:23 | 43.45905 | -80.46645 | 11132 ft | 373 kts | 93° |
| 2026-05-06 15:23 | 43.45861 | -80.43175 | 10651 ft | 352 kts | 93° |
| 2026-05-06 15:24 | 43.45815 | -80.39939 | 10206 ft | 334 kts | 93° |
| 2026-05-06 15:24 | 43.45931 | -80.36801 | 9721 ft | 318 kts | 80° |
| 2026-05-06 15:24 | 43.46436 | -80.33959 | 9336 ft | 302 kts | 75° |
| 2026-05-06 15:24 | 43.46954 | -80.31213 | 8948 ft | 289 kts | 76° |
| 2026-05-06 15:25 | 43.47414 | -80.28623 | 8571 ft | 269 kts | 76° |
| 2026-05-06 15:25 | 43.47838 | -80.26169 | 8223 ft | 259 kts | 77° |
| 2026-05-06 15:25 | 43.48260 | -80.23780 | 7891 ft | 256 kts | 76° |
| 2026-05-06 15:25 | 43.48684 | -80.21405 | 7558 ft | 254 kts | 76° |
| 2026-05-06 15:26 | 43.49103 | -80.19040 | 7226 ft | 253 kts | 76° |
| 2026-05-06 15:26 | 43.49419 | -80.16659 | 6856 ft | 251 kts | 88° |
| 2026-05-06 15:26 | 43.49398 | -80.15081 | 6731 ft | 248 kts | 92° |
| 2026-05-06 15:26 | 43.49307 | -80.11921 | 6444 ft | 250 kts | 92° |
| 2026-05-06 15:27 | 43.49235 | -80.09528 | 6196 ft | 251 kts | 92° |
| 2026-05-06 15:27 | 43.49162 | -80.07124 | 5936 ft | 250 kts | 92° |
| 2026-05-06 15:27 | 43.49113 | -80.05538 | 5773 ft | 248 kts | 92° |
| 2026-05-06 15:27 | 43.49039 | -80.03167 | 5529 ft | 247 kts | 92° |
| 2026-05-06 15:28 | 43.48964 | -80.00804 | 5292 ft | 247 kts | 92° |
| 2026-05-06 15:28 | 43.48891 | -79.98448 | 5047 ft | 246 kts | 92° |
| 2026-05-06 15:28 | 43.48818 | -79.96098 | 4811 ft | 245 kts | 92° |
| 2026-05-06 15:28 | 43.49023 | -79.93799 | 4482 ft | 243 kts | 68° |
| 2026-05-06 15:29 | 43.49876 | -79.91828 | 4289 ft | 237 kts | 51° |
| 2026-05-06 15:29 | 43.50982 | -79.90159 | 4096 ft | 235 kts | 45° |
| 2026-05-06 15:29 | 43.52107 | -79.88539 | 3884 ft | 240 kts | 45° |
| 2026-05-06 15:29 | 43.53219 | -79.86928 | 3657 ft | 224 kts | 45° |
| 2026-05-06 15:30 | 43.54272 | -79.85422 | 3423 ft | 211 kts | 45° |
| 2026-05-06 15:30 | 43.55260 | -79.83993 | 3212 ft | 201 kts | 45° |
| 2026-05-06 15:30 | 43.56203 | -79.82626 | 3020 ft | 193 kts | 46° |
| 2026-05-06 15:30 | 43.57090 | -79.81347 | 2991 ft | 172 kts | 45° |
| 2026-05-06 15:31 | 43.57853 | -79.80243 | 2996 ft | 150 kts | 46° |
| 2026-05-06 15:31 | 43.58540 | -79.79253 | 2977 ft | 133 kts | 45° |
| 2026-05-06 15:31 | 43.59156 | -79.78360 | 2992 ft | 129 kts | 46° |
| 2026-05-06 15:32 | 43.60434 | -79.76519 | 2649 ft | 125 kts | 46° |
| 2026-05-06 15:32 | 43.61016 | -79.75673 | 2491 ft | 119 kts | 46° |
| 2026-05-06 15:32 | 43.61587 | -79.74844 | 2330 ft | 119 kts | 46° |
| 2026-05-06 15:32 | 43.62163 | -79.74017 | 2169 ft | 120 kts | 46° |
| 2026-05-06 15:33 | 43.62742 | -79.73175 | 1986 ft | 121 kts | 46° |
| 2026-05-06 15:33 | 43.63314 | -79.72347 | 1823 ft | 121 kts | 45° |
| 2026-05-06 15:33 | 43.63896 | -79.71507 | 1657 ft | 121 kts | 46° |
| 2026-05-06 15:33 | 43.64482 | -79.70650 | 1475 ft | 124 kts | 46° |
| 2026-05-06 15:34 | 43.65072 | -79.69786 | 1348 ft | 122 kts | 45° |
| 2026-05-06 15:34 | 43.65667 | -79.68974 | 1191 ft | 118 kts | 46° |
| 2026-05-06 15:34 | 43.66231 | -79.68145 | 1006 ft | 121 kts | 49° |
| 2026-05-06 15:34 | 43.66814 | -79.67307 | 812 ft | 121 kts | 51° |
| 2026-05-06 15:35 | 43.67396 | -79.66452 | 624 ft | 122 kts | 50° |
| 2026-05-06 15:35 | 43.67944 | -79.65650 | 560 ft | 102 kts | 49° |
| 2026-05-06 15:35 | 43.68298 | -79.65138 | 563 ft | 50 kts | 46° |
| 2026-05-06 15:35 | 43.68464 | -79.64895 | 566 ft | 29 kts | 47° |
| 2026-05-06 15:36 | 43.68599 | -79.64692 | 562 ft | 28 kts | 47° |
| 2026-05-06 15:36 | 43.68727 | -79.64498 | 560 ft | 27 kts | 47° |
| 2026-05-06 15:36 | 43.68852 | -79.64309 | 560 ft | 25 kts | 47° |
| 2026-05-06 15:36 | 43.68964 | -79.64148 | 564 ft | 22 kts | 44° |
| 2026-05-06 15:37 | 43.69075 | -79.64085 | 564 ft | 17 kts | 321° |
| 2026-05-06 15:37 | 43.69166 | -79.64187 | 561 ft | 17 kts | 321° |
| 2026-05-06 15:37 | 43.69257 | -79.64290 | 563 ft | 15 kts | 319° |
| 2026-05-06 15:37 | 43.69243 | -79.64362 | 565 ft | 6 kts | 227° |
| 2026-05-06 15:38 | 43.69217 | -79.64400 | 567 ft | 5 kts | 227° |
| 2026-05-06 15:38 | 43.69197 | -79.64431 | 566 ft | 4 kts | 227° |
| 2026-05-06 15:38 | 43.69179 | -79.64459 | 569 ft | 4 kts | 227° |
| 2026-05-06 15:38 | 43.69158 | -79.64490 | 571 ft | 5 kts | 227° |
| 2026-05-06 15:39 | 43.69129 | -79.64533 | 566 ft | 7 kts | 227° |
| 2026-05-06 15:39 | 43.69088 | -79.64596 | 568 ft | 10 kts | 227° |
| 2026-05-06 15:39 | 43.69038 | -79.64667 | 561 ft | 10 kts | 225° |
| 2026-05-06 15:39 | 43.68988 | -79.64738 | 562 ft | 10 kts | 227° |
| 2026-05-06 15:40 | 43.68978 | -79.64805 | 560 ft | 6 kts | 311° |
| 2026-05-06 15:40 | 43.69009 | -79.64867 | 563 ft | 9 kts | 280° |
| 2026-05-06 15:40 | 43.68981 | -79.64929 | 559 ft | 8 kts | 223° |
| 2026-05-06 15:40 | 43.68942 | -79.64979 | 561 ft | 8 kts | 223° |
| 2026-05-06 15:41 | 43.68942 | -79.64997 | 558 ft | 0 kts | 309° |
| 2026-05-06 15:41 | 43.68944 | -79.64995 | 560 ft | 1 kts | 359° |
| 2026-05-06 15:41 | 43.68962 | -79.64995 | 560 ft | 0 kts | 359° |
| 2026-05-06 15:41 | 43.68973 | -79.64995 | 561 ft | 0 kts | 359° |